Time;durP1;ratioP1;P1;durP2;ratioP2;P2;SDS_P1;SDS_P2;PMS_P1;PMS_P2;Temp;Humidity;BMP_temperature;BMP_pressure;BME280_temperature;BME280_humidity;BME280_pressure;Samples;Min_cycle;Max_cycle;Signal;HPM_P1;HPM_P2
2021/05/08 00:01:14;;;;;;;11.15;6.95;;;9.10;59.30;;;;;;5018745;28;20076;-75
2021/05/08 00:03:39;;;;;;;10.00;6.68;;;9.10;59.10;;;;;;5019073;28;20065;-72
2021/05/08 00:06:08;;;;;;;11.50;6.70;;;9.10;59.10;;;;;;5015611;28;20397;-73
2021/05/08 00:08:37;;;;;;;11.40;7.57;;;9.10;59.20;;;;;;5015494;28;20049;-78
2021/05/08 00:11:03;;;;;;;10.10;6.80;;;9.20;59.60;;;;;;4998676;28;20049;-73
2021/05/08 00:13:29;;;;;;;11.27;7.50;;;9.20;59.60;;;;;;4998726;28;20172;-72
2021/05/08 00:15:55;;;;;;;11.60;7.10;;;9.20;59.80;;;;;;4998110;28;20041;-73
2021/05/08 00:18:21;;;;;;;10.43;7.45;;;9.20;60.00;;;;;;4997709;28;20026;-72
2021/05/08 00:20:46;;;;;;;13.68;7.85;;;9.20;60.10;;;;;;4997429;28;20057;-75
2021/05/08 00:23:12;;;;;;;12.75;8.00;;;9.30;60.30;;;;;;5017612;28;20042;-73
2021/05/08 00:25:38;;;;;;;12.43;7.70;;;9.30;60.30;;;;;;5024882;28;20034;-74
2021/05/08 00:28:04;;;;;;;14.18;8.35;;;9.30;60.30;;;;;;5024934;28;20033;-72
2021/05/08 00:30:29;;;;;;;13.55;7.70;;;9.30;60.60;;;;;;5017684;28;20474;-76
2021/05/08 00:32:55;;;;;;;11.70;7.63;;;9.30;60.70;;;;;;5015534;28;20148;-73
2021/05/08 00:35:21;;;;;;;13.13;8.40;;;9.30;60.70;;;;;;5018260;28;20252;-72
2021/05/08 00:37:47;;;;;;;12.32;8.25;;;9.30;61.00;;;;;;5019445;28;20038;-73
2021/05/08 00:40:13;;;;;;;12.60;8.30;;;9.20;60.90;;;;;;5015896;28;20033;-72
2021/05/08 00:42:38;;;;;;;11.30;8.13;;;9.30;61.10;;;;;;5016960;28;20069;-72
2021/05/08 00:45:08;;;;;;;11.80;8.30;;;9.30;61.10;;;;;;5002604;28;20068;-73
2021/05/08 00:47:42;;;;;;;12.10;8.20;;;9.30;61.10;;;;;;5002732;28;20066;-78
2021/05/08 00:50:10;;;;;;;10.75;8.68;;;9.30;61.30;;;;;;5016983;28;20033;-76
2021/05/08 00:52:37;;;;;;;11.55;8.20;;;9.30;61.60;;;;;;5011096;28;20807;-74
2021/05/08 00:55:05;;;;;;;12.60;8.32;;;9.20;61.70;;;;;;5005969;28;20114;-72
2021/05/08 00:57:30;;;;;;;12.52;8.77;;;9.20;61.70;;;;;;5016558;28;20029;-73
2021/05/08 00:59:56;;;;;;;11.65;8.70;;;9.10;61.90;;;;;;5017127;28;20063;-73
2021/05/08 01:02:21;;;;;;;13.05;8.65;;;9.10;62.20;;;;;;5016399;28;20121;-73
2021/05/08 01:04:47;;;;;;;13.00;9.43;;;9.10;62.70;;;;;;5016944;28;20038;-72
2021/05/08 01:07:13;;;;;;;14.23;9.73;;;9.00;62.60;;;;;;5017483;28;20037;-76
2021/05/08 01:09:39;;;;;;;12.68;9.02;;;9.10;62.70;;;;;;5017140;28;20045;-73
2021/05/08 01:12:06;;;;;;;13.43;9.43;;;9.10;62.80;;;;;;5017741;28;20591;-74
2021/05/08 01:14:32;;;;;;;15.93;9.35;;;9.00;62.80;;;;;;5016275;28;20715;-72
2021/05/08 01:16:58;;;;;;;13.27;8.77;;;9.00;62.80;;;;;;5016626;28;20042;-76
2021/05/08 01:19:28;;;;;;;13.18;9.82;;;9.00;62.90;;;;;;5005698;28;20755;-73
2021/05/08 01:21:54;;;;;;;14.30;9.00;;;9.10;62.80;;;;;;5004347;28;20262;-73
2021/05/08 01:24:20;;;;;;;12.48;9.50;;;9.00;62.80;;;;;;5017485;28;20041;-72
2021/05/08 01:26:46;;;;;;;13.35;9.23;;;9.00;62.90;;;;;;5016082;28;20037;-75
2021/05/08 01:29:11;;;;;;;14.65;9.77;;;9.00;62.70;;;;;;5015419;28;20057;-72
2021/05/08 01:31:37;;;;;;;13.43;9.48;;;9.00;62.60;;;;;;5018428;28;20064;-76
2021/05/08 01:34:03;;;;;;;13.88;9.82;;;9.00;62.70;;;;;;5019025;28;20037;-73
2021/05/08 01:36:32;;;;;;;15.05;10.27;;;9.00;62.70;;;;;;5013712;28;20049;-73
2021/05/08 01:38:58;;;;;;;13.18;10.07;;;9.10;62.70;;;;;;5013619;28;20116;-73
2021/05/08 01:41:24;;;;;;;15.90;10.52;;;9.00;62.60;;;;;;5016594;28;20477;-74
2021/05/08 01:43:49;;;;;;;14.07;10.07;;;9.00;62.60;;;;;;5022065;28;20044;-72
2021/05/08 01:46:15;;;;;;;14.63;10.20;;;9.00;62.70;;;;;;5018478;28;20045;-73
2021/05/08 01:48:40;;;;;;;13.73;9.70;;;9.00;62.70;;;;;;5014942;28;20048;-77
2021/05/08 01:51:06;;;;;;;13.70;9.85;;;9.00;62.60;;;;;;5014106;28;20088;-76
2021/05/08 01:53:32;;;;;;;13.75;9.80;;;9.00;62.60;;;;;;5017338;28;20117;-73
2021/05/08 01:55:57;;;;;;;13.50;9.93;;;9.00;62.40;;;;;;5016890;28;20511;-76
2021/05/08 01:58:23;;;;;;;13.77;10.57;;;9.00;62.50;;;;;;5016103;28;20036;-73
2021/05/08 02:00:49;;;;;;;14.35;10.70;;;9.10;62.40;;;;;;5016418;28;20037;-73
2021/05/08 02:03:16;;;;;;;14.60;10.13;;;9.10;62.20;;;;;;5016894;28;20481;-73
2021/05/08 02:05:45;;;;;;;14.35;10.35;;;9.10;62.40;;;;;;5019297;28;20053;-72
2021/05/08 02:08:12;;;;;;;13.57;10.65;;;9.00;62.70;;;;;;5019095;28;20117;-73
2021/05/08 02:10:40;;;;;;;14.75;10.30;;;9.00;62.90;;;;;;5019354;28;20220;-73
2021/05/08 02:13:07;;;;;;;13.40;10.77;;;9.00;63.10;;;;;;5010175;28;20370;-74
2021/05/08 02:15:34;;;;;;;17.60;11.60;;;9.00;63.10;;;;;;5004132;28;20025;-72
2021/05/08 02:18:00;;;;;;;13.68;9.95;;;9.00;63.00;;;;;;5020910;28;20136;-72
2021/05/08 02:20:28;;;;;;;17.45;11.32;;;9.00;63.00;;;;;;5015961;28;20165;-76
2021/05/08 02:22:55;;;;;;;14.20;10.23;;;8.90;63.10;;;;;;4999290;28;20437;-74
2021/05/08 02:25:22;;;;;;;14.70;10.60;;;8.90;63.40;;;;;;5020103;28;20037;-72
2021/05/08 02:27:47;;;;;;;13.07;9.88;;;8.90;63.40;;;;;;5027893;28;20481;-77
2021/05/08 02:30:16;;;;;;;12.40;9.50;;;8.90;63.60;;;;;;5020506;28;20064;-74
2021/05/08 02:32:42;;;;;;;13.40;10.32;;;8.80;63.40;;;;;;5020940;28;20508;-77
2021/05/08 02:35:10;;;;;;;13.02;10.00;;;8.80;63.40;;;;;;5017375;28;20029;-72
2021/05/08 02:37:36;;;;;;;13.57;10.23;;;8.80;63.60;;;;;;4997013;28;20026;-74
2021/05/08 02:40:08;;;;;;;14.35;9.55;;;8.80;63.10;;;;;;5015190;28;20029;-71
2021/05/08 02:42:34;;;;;;;12.20;8.88;;;8.80;62.90;;;;;;5018869;28;20484;-73
2021/05/08 02:45:00;;;;;;;13.95;9.57;;;8.80;62.80;;;;;;5023285;28;20033;-72
2021/05/08 02:47:25;;;;;;;13.63;9.30;;;8.90;62.60;;;;;;5020923;28;20102;-75
2021/05/08 02:49:54;;;;;;;15.68;8.75;;;8.90;62.20;;;;;;5019832;28;20472;-72
2021/05/08 02:52:20;;;;;;;12.38;7.82;;;8.90;61.80;;;;;;5021418;28;20452;-73
2021/05/08 02:54:46;;;;;;;15.00;7.65;;;8.90;61.60;;;;;;5019935;28;20057;-72
2021/05/08 02:57:12;;;;;;;11.98;7.32;;;8.90;61.60;;;;;;5020881;28;20068;-73
2021/05/08 02:59:37;;;;;;;10.27;7.28;;;9.00;61.70;;;;;;5005597;28;20400;-72
2021/05/08 03:02:04;;;;;;;10.98;7.72;;;9.00;61.30;;;;;;5005936;28;20045;-75
2021/05/08 03:04:30;;;;;;;11.82;7.38;;;9.00;61.40;;;;;;5025399;28;20104;-76
2021/05/08 03:06:56;;;;;;;11.65;7.68;;;9.00;61.40;;;;;;5022107;28;20392;-74
2021/05/08 03:09:22;;;;;;;11.10;6.90;;;9.10;60.60;;;;;;5022901;28;20044;-74
2021/05/08 03:11:48;;;;;;;12.32;7.10;;;9.00;60.40;;;;;;5018713;28;20107;-73
2021/05/08 03:14:14;;;;;;;12.68;7.25;;;9.10;60.60;;;;;;5011297;28;20057;-72
2021/05/08 03:16:42;;;;;;;12.35;6.93;;;9.10;60.30;;;;;;5020542;28;20527;-73
2021/05/08 03:19:07;;;;;;;13.90;7.45;;;9.10;60.20;;;;;;5019547;28;20099;-72
2021/05/08 03:21:33;;;;;;;11.07;6.80;;;9.10;60.10;;;;;;5020646;28;20124;-72
2021/05/08 03:23:59;;;;;;;10.75;7.00;;;9.20;60.40;;;;;;5022015;28;20060;-72
2021/05/08 03:26:25;;;;;;;13.82;7.07;;;9.20;60.50;;;;;;5018639;28;20042;-72
2021/05/08 03:28:51;;;;;;;11.98;6.75;;;9.20;60.50;;;;;;5020893;28;20541;-72
2021/05/08 03:31:17;;;;;;;10.98;7.03;;;9.20;60.60;;;;;;5020891;28;20125;-73
2021/05/08 03:33:43;;;;;;;12.30;7.40;;;9.20;60.70;;;;;;5018344;28;20105;-73
2021/05/08 03:36:08;;;;;;;13.15;7.10;;;9.20;60.90;;;;;;5017232;28;20037;-76
2021/05/08 03:38:34;;;;;;;13.27;7.45;;;9.20;60.60;;;;;;5004091;28;20475;-72
2021/05/08 03:41:00;;;;;;;11.68;7.28;;;9.20;60.80;;;;;;5024383;28;20029;-75
2021/05/08 03:43:25;;;;;;;10.82;6.85;;;9.30;60.80;;;;;;5009733;28;20064;-74
2021/05/08 03:45:51;;;;;;;11.60;7.57;;;9.30;60.50;;;;;;5020680;28;20068;-74
2021/05/08 03:48:17;;;;;;;12.50;7.35;;;9.30;60.60;;;;;;5018386;28;20033;-72
2021/05/08 03:50:43;;;;;;;11.20;7.60;;;9.30;60.60;;;;;;5018024;28;20038;-72
2021/05/08 03:53:09;;;;;;;12.02;6.53;;;9.20;60.50;;;;;;5019364;28;20057;-72
2021/05/08 03:55:37;;;;;;;11.95;6.65;;;9.20;60.60;;;;;;5020206;28;20110;-70
2021/05/08 03:58:03;;;;;;;10.43;6.53;;;9.30;60.50;;;;;;5018809;28;20029;-72
2021/05/08 04:00:29;;;;;;;12.10;7.18;;;9.30;60.50;;;;;;5016907;28;20068;-72
2021/05/08 04:02:54;;;;;;;13.15;7.43;;;9.30;60.70;;;;;;5018617;28;20036;-72
2021/05/08 04:05:20;;;;;;;11.95;7.03;;;9.30;60.40;;;;;;5018039;28;20042;-72
2021/05/08 04:07:46;;;;;;;11.38;6.93;;;9.30;60.90;;;;;;5021844;28;20060;-73
2021/05/08 04:10:11;;;;;;;12.90;7.35;;;9.30;60.80;;;;;;5024750;28;20034;-73
2021/05/08 04:12:37;;;;;;;13.93;7.78;;;9.40;60.80;;;;;;5025374;28;20049;-76
2021/05/08 04:15:04;;;;;;;12.05;6.95;;;9.30;60.90;;;;;;5017887;28;20039;-75
2021/05/08 04:17:29;;;;;;;12.00;7.18;;;9.40;60.80;;;;;;5025904;28;20512;-73
2021/05/08 04:19:55;;;;;;;13.73;7.47;;;9.40;60.60;;;;;;5026315;28;20030;-73
2021/05/08 04:22:20;;;;;;;13.00;7.53;;;9.40;60.70;;;;;;5027273;28;20350;-74
2021/05/08 04:24:46;;;;;;;12.27;7.25;;;9.50;60.80;;;;;;5022842;28;20038;-73
2021/05/08 04:27:12;;;;;;;12.82;7.28;;;9.50;60.70;;;;;;5004914;28;20037;-72
2021/05/08 04:29:38;;;;;;;11.77;7.18;;;9.50;61.00;;;;;;5018744;28;20049;-72
2021/05/08 04:32:04;;;;;;;14.35;7.45;;;9.40;60.80;;;;;;5019343;28;20041;-73
2021/05/08 04:34:30;;;;;;;11.80;7.13;;;9.40;60.80;;;;;;5020570;28;20117;-73
2021/05/08 04:36:55;;;;;;;12.40;7.25;;;9.50;61.00;;;;;;5024653;28;20113;-72
2021/05/08 04:39:22;;;;;;;13.07;7.25;;;9.50;60.90;;;;;;5024570;28;20535;-72
2021/05/08 04:41:47;;;;;;;19.00;7.80;;;9.50;60.70;;;;;;5024104;28;20495;-72
2021/05/08 04:44:13;;;;;;;12.05;7.20;;;9.40;61.10;;;;;;5030907;28;20026;-73
2021/05/08 04:46:39;;;;;;;12.05;7.05;;;9.50;61.00;;;;;;5022199;28;20338;-73
2021/05/08 04:49:04;;;;;;;11.85;6.80;;;9.50;61.00;;;;;;5025495;28;20037;-75
2021/05/08 04:51:30;;;;;;;12.45;7.15;;;9.50;61.30;;;;;;5021877;28;20502;-72
2021/05/08 04:53:55;;;;;;;13.90;7.88;;;9.60;61.30;;;;;;5023937;28;20060;-72
2021/05/08 04:56:23;;;;;;;14.60;7.80;;;9.50;61.10;;;;;;5016910;28;20030;-73
2021/05/08 04:58:49;;;;;;;12.00;7.18;;;9.60;61.00;;;;;;5025240;28;20485;-72
2021/05/08 05:01:15;;;;;;;12.05;7.25;;;9.60;61.00;;;;;;5020896;28;20036;-72
2021/05/08 05:03:40;;;;;;;12.23;6.93;;;9.60;60.90;;;;;;5024383;28;20032;-73
2021/05/08 05:06:06;;;;;;;11.52;6.72;;;9.60;61.00;;;;;;5023609;28;20041;-72
2021/05/08 05:08:32;;;;;;;12.48;7.00;;;9.60;60.90;;;;;;5023299;28;20033;-72
2021/05/08 05:10:57;;;;;;;11.38;7.13;;;9.60;60.90;;;;;;5023686;28;20087;-73
2021/05/08 05:13:23;;;;;;;11.90;6.63;;;9.60;61.00;;;;;;5021545;28;20124;-73
2021/05/08 05:15:50;;;;;;;12.43;7.53;;;9.60;61.00;;;;;;5025278;28;20395;-72
2021/05/08 05:18:16;;;;;;;12.07;6.85;;;9.70;60.70;;;;;;5015312;28;20037;-73
2021/05/08 05:20:43;;;;;;;13.70;7.05;;;9.70;60.60;;;;;;5024661;28;20034;-72
2021/05/08 05:23:09;;;;;;;12.68;7.10;;;9.80;60.50;;;;;;5019900;28;20120;-72
2021/05/08 05:25:35;;;;;;;13.60;7.28;;;9.80;60.70;;;;;;5020549;28;20180;-72
2021/05/08 05:28:00;;;;;;;11.95;6.63;;;9.90;60.50;;;;;;5022196;28;20537;-72
2021/05/08 05:30:26;;;;;;;12.77;7.70;;;9.90;60.50;;;;;;5016672;28;20481;-73
2021/05/08 05:32:52;;;;;;;12.30;7.07;;;9.90;60.20;;;;;;5004958;28;20478;-74
2021/05/08 05:35:17;;;;;;;12.68;7.28;;;10.00;60.10;;;;;;5028169;28;20145;-72
2021/05/08 05:37:43;;;;;;;12.57;7.70;;;10.00;60.30;;;;;;5028710;28;20064;-72
2021/05/08 05:40:10;;;;;;;12.48;7.40;;;10.10;59.70;;;;;;5020286;28;20038;-72
2021/05/08 05:42:35;;;;;;;12.98;7.93;;;10.10;59.90;;;;;;5026417;28;20484;-71
2021/05/08 05:45:01;;;;;;;13.50;6.97;;;10.10;59.30;;;;;;5022216;28;20117;-72
2021/05/08 05:47:30;;;;;;;16.35;7.72;;;10.10;59.30;;;;;;5022745;28;20402;-73
2021/05/08 05:49:56;;;;;;;12.45;7.03;;;10.20;59.60;;;;;;5025716;28;20080;-72
2021/05/08 05:52:22;;;;;;;12.95;7.07;;;10.20;59.30;;;;;;5031521;28;20072;-72
2021/05/08 05:54:49;;;;;;;10.60;6.82;;;10.20;59.20;;;;;;5021657;28;20092;-72
2021/05/08 05:57:15;;;;;;;14.55;6.63;;;10.20;59.10;;;;;;5010720;28;20030;-73
2021/05/08 05:59:41;;;;;;;12.23;7.20;;;10.20;59.40;;;;;;5020277;28;20041;-77
2021/05/08 06:02:08;;;;;;;11.13;6.50;;;10.30;59.00;;;;;;4990176;28;20172;-77
2021/05/08 06:04:34;;;;;;;13.13;6.75;;;10.20;59.60;;;;;;5005614;28;20089;-72
2021/05/08 06:07:00;;;;;;;14.07;7.22;;;10.20;59.20;;;;;;5016311;28;20036;-76
2021/05/08 06:09:26;;;;;;;12.27;6.55;;;10.30;59.60;;;;;;5014924;28;20501;-72
2021/05/08 06:11:57;;;;;;;13.13;7.70;;;10.30;60.00;;;;;;4990695;28;20472;-76
2021/05/08 06:14:24;;;;;;;15.93;7.80;;;10.30;60.30;;;;;;5009017;28;20091;-73
2021/05/08 06:16:50;;;;;;;10.90;6.82;;;10.40;61.00;;;;;;5015177;28;20037;-71
2021/05/08 06:19:16;;;;;;;9.93;6.03;;;10.40;60.70;;;;;;5024253;28;20053;-70
2021/05/08 06:21:42;;;;;;;14.40;6.20;;;10.30;60.90;;;;;;5022460;28;20115;-73
2021/05/08 06:24:09;;;;;;;13.30;7.25;;;10.40;60.80;;;;;;5018245;28;20398;-73
2021/05/08 06:26:35;;;;;;;10.95;6.93;;;10.50;60.50;;;;;;5011802;28;20136;-72
2021/05/08 06:29:02;;;;;;;11.38;6.32;;;10.40;61.30;;;;;;5008960;28;20030;-73
2021/05/08 06:31:28;;;;;;;14.35;7.68;;;10.40;61.50;;;;;;5009534;28;20049;-72
2021/05/08 06:33:54;;;;;;;11.43;6.68;;;10.50;61.10;;;;;;5013857;28;20026;-72
2021/05/08 06:36:19;;;;;;;12.02;6.88;;;10.50;60.70;;;;;;5013084;28;20041;-75
2021/05/08 06:38:45;;;;;;;10.90;6.60;;;10.40;61.10;;;;;;5014183;28;20037;-74
2021/05/08 06:41:11;;;;;;;11.25;7.32;;;10.50;61.40;;;;;;5012802;28;20037;-73
2021/05/08 06:43:36;;;;;;;11.75;6.95;;;10.50;61.50;;;;;;5015918;28;20048;-71
2021/05/08 06:46:02;;;;;;;11.45;6.20;;;10.50;62.20;;;;;;5007247;28;20041;-75
2021/05/08 06:48:28;;;;;;;11.48;6.43;;;10.40;62.70;;;;;;5013664;28;20041;-71
2021/05/08 06:50:53;;;;;;;11.05;6.57;;;10.40;63.60;;;;;;5010639;28;20064;-73
2021/05/08 06:53:19;;;;;;;15.55;7.45;;;10.40;63.50;;;;;;5011295;28;20041;-72
2021/05/08 06:55:45;;;;;;;10.20;6.35;;;10.40;64.40;;;;;;5012552;28;20440;-76
2021/05/08 06:58:10;;;;;;;12.95;6.47;;;10.40;65.60;;;;;;5004298;28;20223;-71
2021/05/08 07:00:36;;;;;;;12.15;7.28;;;10.40;66.00;;;;;;5009875;28;20097;-74
2021/05/08 07:03:02;;;;;;;13.50;7.18;;;10.40;66.80;;;;;;5017554;28;20034;-70
2021/05/08 07:05:29;;;;;;;11.32;7.57;;;10.40;67.20;;;;;;5018925;28;20092;-72
2021/05/08 07:08:07;;;;;;;12.15;6.50;;;10.40;68.50;;;;;;5015232;28;20041;-72
2021/05/08 07:10:33;;;;;;;11.52;6.55;;;10.50;67.90;;;;;;5010490;28;20038;-74
2021/05/08 07:12:59;;;;;;;10.10;6.80;;;10.50;67.30;;;;;;5014508;28;20071;-71
2021/05/08 07:15:24;;;;;;;10.77;6.93;;;10.50;67.80;;;;;;5013112;28;20029;-71
2021/05/08 07:18:04;;;;;;;10.48;6.82;;;10.50;68.70;;;;;;5015031;28;20132;-73
2021/05/08 07:20:31;;;;;;;11.80;7.10;;;10.60;69.50;;;;;;5014745;28;20073;-71
2021/05/08 07:22:57;;;;;;;10.52;6.57;;;10.60;69.80;;;;;;5020091;28;20037;-70
2021/05/08 07:25:22;;;;;;;11.38;7.05;;;10.70;69.50;;;;;;5015399;28;20041;-75
2021/05/08 07:27:48;;;;;;;13.88;7.25;;;10.80;69.40;;;;;;5013365;28;20033;-72
2021/05/08 07:30:14;;;;;;;10.82;6.85;;;10.90;70.10;;;;;;5017965;28;20034;-74
2021/05/08 07:32:40;;;;;;;11.35;6.40;;;10.90;69.80;;;;;;5013777;28;20100;-71
2021/05/08 07:35:07;;;;;;;11.75;7.07;;;10.90;69.30;;;;;;5014817;28;20446;-70
2021/05/08 07:37:33;;;;;;;10.75;7.03;;;10.80;69.70;;;;;;5012775;28;20026;-70
2021/05/08 07:39:59;;;;;;;13.18;6.88;;;10.90;70.20;;;;;;5015659;28;20093;-75
2021/05/08 07:42:24;;;;;;;11.40;7.30;;;10.90;69.50;;;;;;5012606;28;20117;-72
2021/05/08 07:44:50;;;;;;;9.73;6.70;;;10.90;70.80;;;;;;5006622;28;20125;-67
2021/05/08 07:47:15;;;;;;;12.68;7.00;;;10.80;71.10;;;;;;4992408;28;20109;-72
2021/05/08 07:49:41;;;;;;;11.65;6.80;;;10.90;71.80;;;;;;5009152;28;20104;-68
2021/05/08 07:52:07;;;;;;;11.65;6.88;;;10.90;71.50;;;;;;5008761;28;20054;-67
2021/05/08 07:54:32;;;;;;;11.40;6.60;;;10.80;71.70;;;;;;5009500;28;20034;-67
2021/05/08 07:56:58;;;;;;;9.77;6.03;;;10.90;72.20;;;;;;5016107;28;20374;-67
2021/05/08 07:59:24;;;;;;;13.60;7.32;;;10.90;71.40;;;;;;5013748;28;20025;-67
2021/05/08 08:01:50;;;;;;;11.45;6.45;;;10.90;73.00;;;;;;5019587;28;20038;-68
2021/05/08 08:04:16;;;;;;;10.30;7.28;;;10.90;73.00;;;;;;5018492;28;20254;-67
2021/05/08 08:06:42;;;;;;;11.77;7.18;;;10.90;73.40;;;;;;5012933;28;20049;-69
2021/05/08 08:09:07;;;;;;;10.20;6.78;;;10.90;73.80;;;;;;5016353;28;20059;-70
2021/05/08 08:11:33;;;;;;;12.65;6.82;;;10.80;73.90;;;;;;5022703;28;20076;-71
2021/05/08 08:13:59;;;;;;;13.50;7.82;;;10.90;74.30;;;;;;5013536;28;20064;-68
2021/05/08 08:16:24;;;;;;;11.07;7.53;;;10.90;73.90;;;;;;5017398;28;20116;-69
2021/05/08 08:18:50;;;;;;;11.35;6.88;;;10.80;74.40;;;;;;5017913;28;20038;-72
2021/05/08 08:21:16;;;;;;;12.88;7.30;;;10.80;74.80;;;;;;5018817;28;20068;-70
2021/05/08 08:23:41;;;;;;;10.45;7.50;;;10.80;75.00;;;;;;5016884;28;20041;-70
2021/05/08 08:26:07;;;;;;;12.07;7.95;;;10.90;75.00;;;;;;5016400;28;20029;-68
2021/05/08 08:28:33;;;;;;;10.38;6.85;;;10.90;75.60;;;;;;5021826;28;20037;-68
2021/05/08 08:30:59;;;;;;;11.35;7.47;;;11.10;75.80;;;;;;5019388;28;20072;-68
2021/05/08 08:33:25;;;;;;;11.80;7.57;;;11.10;75.50;;;;;;5021913;28;20572;-69
2021/05/08 08:35:53;;;;;;;12.52;7.85;;;11.00;75.50;;;;;;5017541;28;20617;-69
2021/05/08 08:38:19;;;;;;;14.00;7.97;;;11.00;76.30;;;;;;5018921;28;20038;-69
2021/05/08 08:40:45;;;;;;;12.40;7.65;;;11.10;76.80;;;;;;5000694;28;20041;-67
2021/05/08 08:43:12;;;;;;;12.63;7.63;;;11.00;75.80;;;;;;5011403;28;20042;-71
2021/05/08 08:45:38;;;;;;;9.75;7.18;;;10.90;77.40;;;;;;5021055;28;20047;-67
2021/05/08 08:48:04;;;;;;;9.77;7.38;;;11.00;77.40;;;;;;5018402;28;20030;-68
2021/05/08 08:50:35;;;;;;;10.57;7.18;;;11.00;78.20;;;;;;5020714;28;20448;-68
2021/05/08 08:53:01;;;;;;;11.40;7.13;;;10.90;77.90;;;;;;5019277;28;20046;-68
2021/05/08 08:55:27;;;;;;;9.95;7.63;;;10.90;78.10;;;;;;5017426;28;20044;-68
2021/05/08 08:57:54;;;;;;;10.80;7.45;;;10.60;79.10;;;;;;5015501;28;20056;-68
2021/05/08 09:00:20;;;;;;;10.60;7.40;;;10.70;79.60;;;;;;5017628;28;20421;-68
2021/05/08 09:02:50;;;;;;;12.40;8.23;;;10.60;79.60;;;;;;5013617;28;20073;-68
2021/05/08 09:05:18;;;;;;;11.00;8.07;;;10.60;80.40;;;;;;5015908;28;20038;-68
2021/05/08 09:07:46;;;;;;;11.05;7.55;;;10.70;80.70;;;;;;5019739;28;20038;-72
2021/05/08 09:10:31;;;;;;;12.23;8.13;;;10.80;80.60;;;;;;5019906;28;20030;-68
2021/05/08 09:13:02;;;;;;;12.15;8.18;;;10.70;80.30;;;;;;5022332;28;20084;-68
2021/05/08 09:15:42;;;;;;;10.05;7.70;;;10.70;81.20;;;;;;5019888;28;20059;-68
2021/05/08 09:18:10;;;;;;;13.73;8.50;;;10.80;81.50;;;;;;5018670;28;20033;-68
2021/05/08 09:20:47;;;;;;;11.95;8.85;;;10.80;81.20;;;;;;5022587;28;20037;-68
2021/05/08 09:23:18;;;;;;;12.13;9.60;;;10.80;81.40;;;;;;5018654;28;20107;-68
2021/05/08 09:26:00;;;;;;;12.68;8.95;;;10.80;81.30;;;;;;5022036;28;20041;-69
2021/05/08 09:28:30;;;;;;;13.43;10.10;;;11.00;81.90;;;;;;5003983;28;20038;-71
2021/05/08 09:30:57;;;;;;;15.15;9.70;;;11.10;82.00;;;;;;5005944;28;20547;-70
2021/05/08 09:33:25;;;;;;;13.07;9.05;;;11.20;81.60;;;;;;4997664;28;20131;-73
2021/05/08 09:36:02;;;;;;;13.55;8.93;;;11.30;81.50;;;;;;5006103;28;20037;-69
2021/05/08 09:38:32;;;;;;;12.32;9.18;;;11.30;81.60;;;;;;5008867;28;20056;-70
2021/05/08 09:40:58;;;;;;;12.68;8.88;;;11.40;81.40;;;;;;5035309;28;20033;-69
2021/05/08 09:43:24;;;;;;;12.00;8.45;;;11.40;81.40;;;;;;5024157;28;20760;-69
2021/05/08 09:45:52;;;;;;;12.77;9.55;;;11.60;81.50;;;;;;5018893;28;20041;-70
2021/05/08 09:48:32;;;;;;;11.65;8.80;;;11.60;81.90;;;;;;4999060;28;20196;-69
2021/05/08 09:51:24;;;;;;;14.15;9.10;;;11.60;81.50;;;;;;5016930;28;20435;-72
2021/05/08 09:53:52;;;;;;;10.93;8.45;;;11.60;81.70;;;;;;5002155;28;20034;-72
2021/05/08 09:56:38;;;;;;;12.35;8.65;;;11.70;82.00;;;;;;5001520;28;20104;-71
2021/05/08 09:59:23;;;;;;;13.48;8.45;;;11.70;81.50;;;;;;5002400;28;20112;-72
2021/05/08 10:02:09;;;;;;;;;;;11.60;81.90;;;;;;5000298;28;20068;-70
2021/05/08 10:04:57;;;;;;;15.13;9.65;;;11.70;81.90;;;;;;4970921;28;19922;-71
2021/05/08 10:07:25;;;;;;;10.65;8.02;;;11.60;82.20;;;;;;4982908;28;20065;-74
2021/05/08 10:09:52;;;;;;;11.57;7.80;;;11.50;82.30;;;;;;4988626;28;20237;-75
2021/05/08 10:12:20;;;;;;;12.02;8.18;;;11.40;82.50;;;;;;5005791;28;20041;-78
2021/05/08 10:14:48;;;;;;;12.63;8.30;;;11.40;82.60;;;;;;5008395;28;20038;-74
2021/05/08 10:17:17;;;;;;;10.13;8.23;;;11.60;82.90;;;;;;5018387;28;20033;-72
2021/05/08 10:19:46;;;;;;;10.70;7.20;;;11.60;82.60;;;;;;5019922;28;20484;-73
2021/05/08 10:22:12;;;;;;;11.73;7.20;;;11.70;82.60;;;;;;5005626;28;20045;-74
2021/05/08 10:24:43;;;;;;;10.50;7.40;;;11.90;82.20;;;;;;5011754;28;20030;-77
2021/05/08 10:27:09;;;;;;;11.48;7.15;;;11.70;82.20;;;;;;5009144;28;20053;-73
2021/05/08 10:29:44;;;;;;;10.68;7.45;;;11.90;81.70;;;;;;5018060;28;20041;-71
2021/05/08 10:32:12;;;;;;;12.40;7.05;;;12.00;81.60;;;;;;5017518;28;20029;-69
2021/05/08 10:34:58;;;;;;;11.55;7.60;;;12.00;81.60;;;;;;5016455;28;20045;-71
2021/05/08 10:37:24;;;;;;;10.85;7.30;;;12.20;81.70;;;;;;5014542;28;20030;-70
2021/05/08 10:40:13;;;;;;;10.25;7.20;;;12.50;81.30;;;;;;5016049;28;20095;-75
2021/05/08 10:42:49;;;;;;;11.45;7.45;;;12.60;80.30;;;;;;5013514;28;20041;-77
2021/05/08 10:45:20;;;;;;;13.35;7.47;;;12.60;80.10;;;;;;5018990;28;20076;-70
2021/05/08 10:50:42;;;;;;;11.40;7.35;;;12.90;79.90;;;;;;5021148;28;20165;-71
2021/05/08 10:53:19;;;;;;;11.32;8.18;;;13.10;79.30;;;;;;5012482;28;21215;-70
2021/05/08 10:55:51;;;;;;;13.80;8.02;;;13.00;78.60;;;;;;5013839;28;20040;-70
2021/05/08 10:58:17;;;;;;;11.95;7.50;;;13.00;78.80;;;;;;5018988;28;20104;-70
2021/05/08 11:00:57;;;;;;;12.70;8.10;;;13.10;78.90;;;;;;5004265;28;20030;-72
2021/05/08 11:03:53;;;;;;;11.52;7.43;;;13.10;78.70;;;;;;4997524;28;20832;-74
2021/05/08 11:06:19;;;;;;;11.15;7.05;;;13.00;78.80;;;;;;4998592;28;20478;-73
2021/05/08 11:08:49;;;;;;;12.05;8.00;;;13.20;78.90;;;;;;5006711;28;20033;-74
2021/05/08 11:11:20;;;;;;;11.57;7.40;;;13.30;79.40;;;;;;5005623;28;20172;-70
2021/05/08 11:13:48;;;;;;;11.90;7.97;;;13.30;77.90;;;;;;5016345;28;20026;-71
2021/05/08 11:16:18;;;;;;;10.60;7.43;;;13.40;78.20;;;;;;5012706;28;20071;-71
2021/05/08 11:18:46;;;;;;;12.38;7.45;;;13.50;77.70;;;;;;5007810;28;20033;-72
2021/05/08 11:21:11;;;;;;;13.18;8.20;;;13.40;78.00;;;;;;5017822;28;20033;-71
2021/05/08 11:23:48;;;;;;;11.93;8.18;;;13.40;78.00;;;;;;5021203;28;20037;-70
2021/05/08 11:26:26;;;;;;;10.98;7.80;;;13.40;78.50;;;;;;5019935;28;20507;-72
2021/05/08 11:28:55;;;;;;;12.32;8.48;;;13.40;78.90;;;;;;5021364;28;20038;-71
2021/05/08 11:31:27;;;;;;;12.38;7.80;;;13.30;78.70;;;;;;5016686;28;21827;-70
2021/05/08 11:34:02;;;;;;;12.55;8.68;;;13.30;78.70;;;;;;5017188;28;20041;-73
2021/05/08 11:36:28;;;;;;;14.18;9.10;;;13.50;78.70;;;;;;5017376;28;20100;-70
2021/05/08 11:39:13;;;;;;;12.07;8.57;;;13.50;78.20;;;;;;5018435;28;20374;-70
2021/05/08 11:41:39;;;;;;;12.20;8.85;;;13.70;78.40;;;;;;5017971;28;20037;-70
2021/05/08 11:44:05;;;;;;;12.65;8.70;;;14.00;78.10;;;;;;5006958;28;20040;-77
2021/05/08 11:46:33;;;;;;;13.05;9.00;;;14.10;77.30;;;;;;4996025;28;20105;-69
2021/05/08 11:48:59;;;;;;;13.10;9.60;;;14.10;77.10;;;;;;5003515;28;20590;-70
2021/05/08 11:51:25;;;;;;;16.23;9.35;;;13.90;77.70;;;;;;5017434;28;20047;-73
2021/05/08 11:54:07;;;;;;;11.88;8.60;;;13.80;77.90;;;;;;5019041;28;20025;-72
2021/05/08 11:56:33;;;;;;;12.38;9.13;;;13.80;78.40;;;;;;5017334;28;20484;-74
2021/05/08 11:59:00;;;;;;;16.02;9.27;;;13.80;78.70;;;;;;5021545;28;20800;-71
2021/05/08 12:01:29;;;;;;;12.00;9.25;;;14.00;78.70;;;;;;4997613;28;20074;-71
2021/05/08 12:03:56;;;;;;;12.48;9.07;;;13.90;77.90;;;;;;5002404;28;20041;-71
2021/05/08 12:06:21;;;;;;;14.55;9.05;;;13.90;78.30;;;;;;4999854;28;20067;-70
2021/05/08 12:08:47;;;;;;;14.25;9.35;;;13.90;78.20;;;;;;4998120;28;20034;-71
2021/05/08 12:11:17;;;;;;;14.02;9.70;;;14.00;77.90;;;;;;5012162;28;20543;-71
2021/05/08 12:13:43;;;;;;;14.48;9.50;;;14.10;77.80;;;;;;5016579;28;20563;-71
2021/05/08 12:16:09;;;;;;;12.88;8.63;;;14.10;77.60;;;;;;5021942;28;20026;-71
2021/05/08 12:18:35;;;;;;;12.77;9.50;;;14.30;77.20;;;;;;5020362;28;20076;-71
2021/05/08 12:21:04;;;;;;;11.60;9.05;;;14.50;76.60;;;;;;5001935;28;20124;-71
2021/05/08 12:23:30;;;;;;;12.00;8.77;;;14.60;76.50;;;;;;5002725;28;20075;-70
2021/05/08 12:26:13;;;;;;;13.80;9.38;;;14.70;75.20;;;;;;5020040;28;20095;-70
2021/05/08 12:29:00;;;;;;;13.88;9.05;;;14.80;75.60;;;;;;4999013;28;20029;-71
2021/05/08 12:31:33;;;;;;;13.75;9.20;;;14.90;75.20;;;;;;5016613;28;20045;-75
2021/05/08 12:34:07;;;;;;;14.25;8.85;;;15.10;75.20;;;;;;5015986;28;20045;-70
2021/05/08 12:36:34;;;;;;;12.32;8.57;;;15.20;75.10;;;;;;4994683;28;20038;-73
2021/05/08 12:39:16;;;;;;;12.85;9.45;;;15.30;74.50;;;;;;4995336;28;20489;-72
2021/05/08 12:41:51;;;;;;;10.00;7.65;;;15.60;73.50;;;;;;5019614;28;20040;-74
2021/05/08 12:44:17;;;;;;;11.68;8.88;;;15.80;73.60;;;;;;5017279;28;20168;-69
2021/05/08 12:47:00;;;;;;;13.00;8.75;;;16.20;72.50;;;;;;5004901;28;20145;-74